createdAt,value
2022-11-30T00:01:16.041Z,-0.82
2022-11-30T00:03:42.731Z,-0.85
2022-11-30T00:06:15.079Z,-0.81
2022-11-30T00:08:41.804Z,-0.81
2022-11-30T00:11:10.190Z,-0.90
2022-11-30T00:13:36.899Z,-0.82
2022-11-30T00:16:04.019Z,-0.87
2022-11-30T00:18:30.752Z,-0.84
2022-11-30T00:21:01.923Z,-0.94
2022-11-30T00:23:36.424Z,-0.89
2022-11-30T00:26:04.855Z,-0.88
2022-11-30T00:28:32.525Z,-0.88
2022-11-30T00:31:08.473Z,-0.86
2022-11-30T00:33:35.799Z,-0.86
2022-11-30T00:36:05.375Z,-0.82
2022-11-30T00:38:32.881Z,-0.81
2022-11-30T00:41:00.450Z,-0.83
2022-11-30T00:43:27.747Z,-0.90
2022-11-30T00:45:55.384Z,-0.86
2022-11-30T00:48:22.037Z,-0.88
2022-11-30T00:50:49.972Z,-0.84
2022-11-30T00:53:17.421Z,-0.89
2022-11-30T00:55:44.458Z,-0.90
2022-11-30T00:58:11.948Z,-0.94
2022-11-30T01:00:40.970Z,-0.97
2022-11-30T01:03:07.564Z,-0.92
2022-11-30T01:05:34.514Z,-0.90
2022-11-30T01:08:06.280Z,-0.91
2022-11-30T01:10:38.025Z,-0.94
2022-11-30T01:13:05.184Z,-0.96
2022-11-30T01:15:35.654Z,-0.91
2022-11-30T01:18:02.267Z,-0.96
2022-11-30T01:20:28.807Z,-0.98
2022-11-30T01:22:56.021Z,-0.98
2022-11-30T01:25:23.427Z,-0.99
2022-11-30T01:27:51.097Z,-1.10
2022-11-30T01:30:18.432Z,-1.13
2022-11-30T01:32:44.986Z,-1.09
2022-11-30T01:35:11.542Z,-1.05
2022-11-30T01:37:38.102Z,-1.06
2022-11-30T01:40:05.191Z,-1.01
2022-11-30T01:42:33.080Z,-1.01
2022-11-30T01:45:02.362Z,-1.01
2022-11-30T01:47:32.555Z,-1.01
2022-11-30T01:50:08.668Z,-1.04
2022-11-30T01:52:38.593Z,-1.08
2022-11-30T01:55:16.902Z,-1.11
2022-11-30T01:57:57.149Z,-1.08
2022-11-30T02:00:24.249Z,-1.01
2022-11-30T02:03:00.593Z,-0.99
2022-11-30T02:05:28.139Z,-1.04
2022-11-30T02:07:55.153Z,-1.06
2022-11-30T02:10:34.579Z,-1.06
2022-11-30T02:13:21.321Z,-1.19
2022-11-30T02:16:12.262Z,-1.14
2022-11-30T02:19:03.479Z,-1.20
2022-11-30T02:21:53.124Z,-1.16
2022-11-30T02:24:51.218Z,-1.17
2022-11-30T02:27:36.547Z,-1.19
2022-11-30T02:30:08.806Z,-1.18
2022-11-30T02:32:42.905Z,-1.16
2022-11-30T02:35:10.925Z,-1.15
2022-11-30T02:37:38.551Z,-1.13
2022-11-30T02:40:10.447Z,-1.14
2022-11-30T02:42:36.985Z,-1.13
2022-11-30T02:45:04.375Z,-1.12
2022-11-30T02:48:07.387Z,-1.14
2022-11-30T02:50:40.652Z,-1.22
2022-11-30T02:53:09.924Z,-1.13
2022-11-30T02:55:36.657Z,-1.16
2022-11-30T02:58:03.413Z,-1.20
2022-11-30T03:00:29.958Z,-1.19
2022-11-30T03:02:56.500Z,-1.21
2022-11-30T03:05:23.240Z,-1.20
2022-11-30T03:07:49.842Z,-1.21
2022-11-30T03:10:16.447Z,-1.21
2022-11-30T03:12:43.028Z,-1.19
2022-11-30T03:15:09.968Z,-1.13
2022-11-30T03:17:36.511Z,-1.15
2022-11-30T03:20:03.318Z,-1.26
2022-11-30T03:22:29.973Z,-1.23
2022-11-30T03:24:56.492Z,-1.23
2022-11-30T03:27:23.092Z,-1.26
2022-11-30T03:29:49.753Z,-1.24
2022-11-30T03:32:16.276Z,-1.23
2022-11-30T03:34:42.792Z,-1.27
2022-11-30T03:37:09.354Z,-1.21
2022-11-30T03:39:35.892Z,-1.25
2022-11-30T03:42:02.479Z,-1.29
2022-11-30T03:44:29.961Z,-1.24
2022-11-30T03:46:56.621Z,-1.28
2022-11-30T03:49:23.138Z,-1.25
2022-11-30T03:51:49.729Z,-1.34
2022-11-30T03:54:16.303Z,-1.23
2022-11-30T03:56:42.820Z,-1.25
2022-11-30T03:59:09.447Z,-1.21
2022-11-30T04:01:36.977Z,-1.21
2022-11-30T04:04:03.727Z,-1.16
2022-11-30T04:06:30.283Z,-1.13
2022-11-30T04:08:56.820Z,-1.14
2022-11-30T04:11:23.392Z,-1.12
2022-11-30T04:13:49.926Z,-1.10
2022-11-30T04:16:16.571Z,-1.05
2022-11-30T04:18:43.162Z,-1.09
2022-11-30T04:21:10.917Z,-1.11
2022-11-30T04:23:39.594Z,-1.08
2022-11-30T04:26:08.849Z,-1.15
2022-11-30T04:28:35.438Z,-1.17
2022-11-30T04:31:02.888Z,-1.14
2022-11-30T04:33:30.051Z,-1.21
2022-11-30T04:35:59.324Z,-1.28
2022-11-30T04:38:26.308Z,-1.22
2022-11-30T04:40:53.311Z,-1.20
2022-11-30T04:43:21.333Z,-1.19
2022-11-30T04:45:48.766Z,-1.18
2022-11-30T04:48:16.599Z,-1.18
2022-11-30T04:50:43.503Z,-1.27
2022-11-30T04:53:10.596Z,-1.27
2022-11-30T04:55:38.320Z,-1.32
2022-11-30T04:58:05.753Z,-1.39
2022-11-30T05:00:32.787Z,-1.26
2022-11-30T05:02:59.316Z,-1.28
2022-11-30T05:05:25.917Z,-1.32
2022-11-30T05:07:57.581Z,-1.26
2022-11-30T05:10:25.210Z,-1.25
2022-11-30T05:12:51.960Z,-1.30
2022-11-30T05:15:19.147Z,-1.32
2022-11-30T05:17:45.681Z,-1.32
2022-11-30T05:20:12.249Z,-1.34
2022-11-30T05:22:38.970Z,-1.40
2022-11-30T05:25:05.891Z,-1.39
2022-11-30T05:27:32.436Z,-1.39
2022-11-30T05:29:59.017Z,-1.40
2022-11-30T05:32:25.565Z,-1.34
2022-11-30T05:34:52.372Z,-1.32
2022-11-30T05:37:19.889Z,-1.34
2022-11-30T05:39:46.477Z,-1.38
2022-11-30T05:42:13.005Z,-1.42
2022-11-30T05:44:39.601Z,-1.47
2022-11-30T05:47:06.309Z,-1.36
2022-11-30T05:49:32.890Z,-1.31
2022-11-30T05:51:59.451Z,-1.39
2022-11-30T05:54:26.024Z,-1.44
2022-11-30T05:56:55.090Z,-1.42
2022-11-30T05:59:22.585Z,-1.38
2022-11-30T06:01:49.295Z,-1.37
2022-11-30T06:04:15.914Z,-1.34
2022-11-30T06:06:42.595Z,-1.36
2022-11-30T06:09:09.224Z,-1.51
2022-11-30T06:11:35.903Z,-1.46
2022-11-30T06:14:02.531Z,-1.47
2022-11-30T06:16:29.115Z,-1.44
2022-11-30T06:18:55.682Z,-1.48
2022-11-30T06:21:24.684Z,-1.51
2022-11-30T06:23:52.718Z,-1.42
2022-11-30T06:26:19.352Z,-1.53
2022-11-30T06:28:48.557Z,-1.59
2022-11-30T08:39:17.040Z,-0.86
2022-11-30T08:41:43.606Z,-0.78
2022-11-30T08:44:10.127Z,-0.70
2022-11-30T08:46:53.436Z,-0.66
2022-11-30T08:49:23.179Z,-0.71
2022-11-30T08:54:42.770Z,-0.57
2022-11-30T08:57:09.534Z,-0.49
2022-11-30T08:59:36.106Z,-0.48
2022-11-30T09:02:02.860Z,-0.56
2022-11-30T09:04:29.431Z,-0.50
2022-11-30T09:06:59.051Z,-0.48
2022-11-30T09:09:25.928Z,-0.46
2022-11-30T09:11:52.566Z,-0.47
2022-11-30T09:14:19.159Z,-0.43
2022-11-30T09:16:45.713Z,-0.46
2022-11-30T09:19:12.310Z,-0.48
2022-11-30T10:37:15.231Z,-0.55
2022-11-30T10:39:57.587Z,-0.49
2022-11-30T10:43:05.845Z,-0.49
2022-11-30T10:45:33.418Z,-0.54
2022-11-30T10:48:06.796Z,-0.54
2022-11-30T10:50:33.988Z,-0.48
2022-11-30T10:53:00.944Z,-0.49
2022-11-30T10:55:31.487Z,-0.61
2022-11-30T10:58:05.168Z,-0.63
2022-11-30T11:00:31.814Z,-0.61
2022-11-30T11:02:58.557Z,-0.62
2022-11-30T11:05:28.025Z,-0.66
2022-11-30T11:08:18.613Z,-0.58
2022-11-30T11:10:47.940Z,-0.53
2022-11-30T11:13:18.448Z,-0.57
2022-11-30T11:16:04.645Z,-0.66
2022-11-30T11:18:36.380Z,-0.80
2022-11-30T11:21:16.623Z,-0.96
2022-11-30T11:23:44.591Z,-1.00
2022-11-30T11:26:20.130Z,-1.14
2022-11-30T11:28:52.391Z,-1.13
2022-11-30T11:31:47.356Z,-1.19
2022-11-30T11:34:31.758Z,-1.19
2022-11-30T11:37:14.423Z,-1.14
2022-11-30T11:39:40.968Z,-1.13
2022-11-30T11:42:22.180Z,-1.28
2022-11-30T11:45:20.514Z,-1.39
2022-11-30T11:47:49.126Z,-1.48
2022-11-30T11:50:57.718Z,-1.42
2022-11-30T11:53:15.305Z,-1.40
2022-11-30T11:55:43.442Z,-1.39
2022-11-30T11:58:18.553Z,-1.35
2022-11-30T12:00:47.603Z,-1.37
2022-11-30T12:03:38.718Z,-1.40
2022-11-30T12:06:17.223Z,-1.23
2022-11-30T12:08:55.172Z,-1.21
2022-11-30T12:11:28.166Z,-1.09
2022-11-30T12:13:54.755Z,-1.03
2022-11-30T12:16:33.276Z,-1.00
2022-11-30T12:19:11.714Z,-1.11
2022-11-30T12:22:14.775Z,-1.11
2022-11-30T12:25:05.913Z,-1.06
2022-11-30T12:28:04.352Z,-1.04
2022-11-30T12:30:42.864Z,-1.16
2022-11-30T12:33:26.491Z,-1.19
2022-11-30T12:36:01.850Z,-1.18
2022-11-30T12:38:41.401Z,-1.30
2022-11-30T12:41:31.513Z,-1.35
2022-11-30T12:44:20.140Z,-1.43
2022-11-30T12:46:47.102Z,-1.53
2022-11-30T12:49:23.640Z,-1.52
2022-11-30T12:52:24.994Z,-1.48
2022-11-30T12:55:25.566Z,-1.49
2022-11-30T12:58:05.577Z,-1.50
2022-11-30T13:01:23.208Z,-1.53
2022-11-30T13:04:09.544Z,-1.51
2022-11-30T13:06:53.929Z,-1.58
2022-11-30T13:09:34.489Z,-1.66
2022-11-30T13:12:29.421Z,-1.84
2022-11-30T13:15:00.748Z,-1.86
2022-11-30T13:17:27.596Z,-1.86
2022-11-30T13:19:55.048Z,-1.87
2022-11-30T13:22:59.048Z,-1.91
2022-11-30T13:28:42.811Z,-1.99
2022-11-30T13:31:34.314Z,-2.09
2022-11-30T13:34:01.004Z,-2.04
2022-11-30T13:36:31.044Z,-2.15
2022-11-30T13:39:22.988Z,-2.05
2022-11-30T13:41:53.313Z,-2.13
2022-11-30T13:44:24.882Z,-2.16
2022-11-30T13:46:53.314Z,-2.09
2022-11-30T13:49:24.205Z,-2.15
2022-11-30T13:52:13.582Z,-2.22
2022-11-30T13:54:43.265Z,-2.17
2022-11-30T13:57:30.111Z,-2.14
2022-11-30T14:00:02.342Z,-2.22
2022-11-30T14:02:36.489Z,-2.27
2022-11-30T18:55:26.324Z,-2.94
2022-11-30T18:57:52.963Z,-2.89
2022-11-30T19:00:20.117Z,-2.92
2022-11-30T19:02:48.359Z,-2.96
2022-11-30T19:05:31.482Z,-3.02
2022-11-30T19:08:13.894Z,-2.98
2022-11-30T19:10:40.840Z,-2.98
2022-11-30T19:13:07.953Z,-2.94
2022-11-30T19:15:39.579Z,-2.98
2022-11-30T19:18:07.031Z,-3.00
2022-11-30T19:20:42.815Z,-3.04
2022-11-30T19:23:09.363Z,-3.05
2022-11-30T19:25:35.980Z,-3.00
2022-11-30T19:28:02.563Z,-3.00
2022-11-30T19:30:29.199Z,-3.04
2022-11-30T19:32:56.008Z,-3.00
2022-11-30T19:35:23.167Z,-2.87
2022-11-30T19:37:51.948Z,-2.98
2022-11-30T19:40:18.705Z,-2.93
2022-11-30T19:42:45.475Z,-2.88
2022-11-30T19:45:12.083Z,-2.94
2022-11-30T19:47:38.818Z,-2.97
2022-11-30T19:50:05.747Z,-3.00
2022-11-30T19:52:32.307Z,-3.02
2022-11-30T19:54:58.841Z,-3.00
2022-11-30T19:57:25.496Z,-3.03
2022-11-30T19:59:52.023Z,-3.02
2022-11-30T20:02:18.662Z,-3.05
2022-11-30T20:04:45.466Z,-3.00
2022-11-30T20:07:13.446Z,-3.02
2022-11-30T20:09:40.090Z,-2.97
2022-11-30T20:12:06.966Z,-3.00
2022-11-30T20:14:33.520Z,-2.98
2022-11-30T20:17:00.077Z,-3.02
2022-11-30T20:19:26.734Z,-2.99
2022-11-30T20:21:53.326Z,-2.99
2022-11-30T20:24:19.879Z,-3.06
2022-11-30T20:26:46.699Z,-3.03
2022-11-30T20:29:15.608Z,-3.08
2022-11-30T20:31:43.387Z,-3.12
2022-11-30T20:34:10.373Z,-3.15
2022-11-30T20:36:37.925Z,-3.15
2022-11-30T20:39:05.621Z,-3.08
2022-11-30T20:41:33.963Z,-3.00
2022-11-30T20:44:00.748Z,-3.05
2022-11-30T20:46:32.842Z,-3.07
2022-11-30T20:49:00.290Z,-3.05
2022-11-30T20:51:31.297Z,-3.12
2022-11-30T20:54:00.814Z,-3.05
2022-11-30T20:56:27.447Z,-3.07
2022-11-30T20:58:54.051Z,-3.04
2022-11-30T21:01:22.735Z,-3.07
2022-11-30T21:03:49.685Z,-3.09
2022-11-30T21:06:16.453Z,-3.04
2022-11-30T21:08:43.605Z,-3.02
2022-11-30T21:11:16.354Z,-3.04
2022-11-30T21:13:45.215Z,-3.10
2022-11-30T21:16:13.686Z,-3.07
2022-11-30T21:18:42.951Z,-2.94
2022-11-30T21:21:19.063Z,-3.00
2022-11-30T21:23:46.482Z,-3.06
2022-11-30T21:26:22.121Z,-3.05
2022-11-30T21:28:50.426Z,-3.07
2022-11-30T21:31:17.097Z,-3.04
2022-11-30T21:33:50.977Z,-3.02
2022-11-30T21:36:19.846Z,-3.07
2022-11-30T21:38:46.440Z,-3.17
2022-11-30T21:41:14.220Z,-3.14
2022-11-30T21:43:41.496Z,-3.09
2022-11-30T21:46:17.046Z,-3.14
2022-11-30T21:48:47.116Z,-3.12
2022-11-30T21:51:21.975Z,-3.06
2022-11-30T21:53:50.828Z,-3.01
2022-11-30T21:56:20.184Z,-3.07
2022-11-30T21:58:48.112Z,-3.11
2022-11-30T22:01:27.378Z,-3.05
2022-11-30T22:03:55.778Z,-3.05
2022-11-30T22:06:24.036Z,-3.01
2022-11-30T22:08:52.856Z,-2.98
2022-11-30T22:11:21.541Z,-2.99
2022-11-30T22:13:52.949Z,-3.03
2022-11-30T22:16:21.351Z,-3.06
2022-11-30T22:18:48.613Z,-3.07
2022-11-30T22:21:17.814Z,-3.09
2022-11-30T22:23:47.117Z,-3.04
2022-11-30T22:26:34.225Z,-3.04
2022-11-30T22:29:11.923Z,-3.05
2022-11-30T22:31:40.990Z,-3.02
2022-11-30T22:34:07.851Z,-3.12
2022-11-30T22:36:37.457Z,-3.02
2022-11-30T22:39:09.362Z,-3.00
2022-11-30T22:41:36.651Z,-2.98
2022-11-30T22:44:03.500Z,-3.01
2022-11-30T22:46:32.668Z,-3.03
2022-11-30T22:49:03.649Z,-3.03
2022-11-30T22:51:31.997Z,-3.08
2022-11-30T22:53:59.467Z,-3.14
2022-11-30T22:56:32.061Z,-3.07
2022-11-30T22:59:00.930Z,-3.09
2022-11-30T23:01:31.402Z,-3.11
2022-11-30T23:04:05.869Z,-3.11
2022-11-30T23:06:33.715Z,-3.13
2022-11-30T23:09:00.777Z,-3.07
2022-11-30T23:11:29.133Z,-3.15
2022-11-30T23:13:55.763Z,-3.10
2022-11-30T23:16:22.428Z,-3.12
2022-11-30T23:18:50.765Z,-3.17
2022-11-30T23:21:30.465Z,-3.12
2022-11-30T23:24:00.190Z,-3.10
2022-11-30T23:26:29.127Z,-3.09
2022-11-30T23:28:59.504Z,-3.10
2022-11-30T23:31:34.422Z,-3.17
2022-11-30T23:34:05.137Z,-3.08
2022-11-30T23:36:33.173Z,-3.19
2022-11-30T23:39:07.927Z,-3.27
2022-11-30T23:41:34.857Z,-3.28
2022-11-30T23:44:01.803Z,-3.32
2022-11-30T23:46:28.568Z,-3.35
2022-11-30T23:48:55.776Z,-3.40
2022-11-30T23:51:22.865Z,-3.43
2022-11-30T23:53:49.416Z,-3.51
2022-11-30T23:56:17.522Z,-3.60
2022-11-30T23:58:44.178Z,-3.66
